Time;durP1;ratioP1;P1;durP2;ratioP2;P2;SDS_P1;SDS_P2;PMS_P1;PMS_P2;Temp;Humidity;BMP_temperature;BMP_pressure;BME280_temperature;BME280_humidity;BME280_pressure;Samples;Min_cycle;Max_cycle;Signal;HPM_P1;HPM_P2
2022/08/21 00:01:47;;;;;;;1.70;1.53;;;15.60;68.60;15.10;96170.00;;;;5116032;28;20232;-59
2022/08/21 00:04:14;;;;;;;0.60;0.60;;;15.80;68.30;15.00;96169.00;;;;5115983;28;20525;-59
2022/08/21 00:06:41;;;;;;;0.60;0.60;;;15.70;68.30;15.00;96166.00;;;;5115855;28;20621;-59
2022/08/21 00:09:09;;;;;;;0.80;0.80;;;15.70;68.50;14.90;96176.00;;;;5116056;28;20294;-60
2022/08/21 00:11:37;;;;;;;1.03;0.97;;;15.60;68.00;14.70;96167.00;;;;5115807;28;20328;-63
2022/08/21 00:14:07;;;;;;;0.50;0.50;;;15.40;69.20;14.70;96169.00;;;;5116039;28;20673;-61
2022/08/21 00:16:38;;;;;;;0.50;0.50;;;15.40;69.70;14.80;96169.00;;;;5116133;28;20229;-60
2022/08/21 00:19:06;;;;;;;0.80;0.80;;;15.40;69.50;14.70;96172.00;;;;5115715;28;20629;-59
2022/08/21 00:21:32;;;;;;;0.83;0.83;;;15.30;69.30;14.60;96168.00;;;;5115605;28;20241;-61
2022/08/21 00:23:59;;;;;;;0.80;0.80;;;;;14.60;96166.00;;;;5115504;28;20296;-59
2022/08/21 00:26:26;;;;;;;0.90;0.90;;;15.30;69.10;14.60;96159.00;;;;5115518;28;20633;-57
2022/08/21 00:28:53;;;;;;;1.17;1.17;;;15.30;70.00;14.70;96169.00;;;;5097665;28;20202;-60
2022/08/21 00:31:20;;;;;;;0.80;0.80;;;15.30;70.00;14.60;96162.00;;;;5115384;28;20677;-60
2022/08/21 00:33:47;;;;;;;1.57;1.47;;;15.30;69.60;14.70;96159.00;;;;5097385;28;20361;-60
2022/08/21 00:36:14;;;;;;;0.50;0.50;;;15.30;69.90;14.70;96158.00;;;;5115375;28;20190;-60
2022/08/21 00:38:41;;;;;;;0.70;0.70;;;15.30;69.80;14.50;96155.00;;;;5115301;28;20363;-60
2022/08/21 00:41:10;;;;;;;1.03;1.03;;;15.20;70.00;14.50;96160.00;;;;5115221;28;20297;-60
2022/08/21 00:43:39;;;;;;;0.50;0.50;;;15.20;70.10;14.60;96159.00;;;;5115200;28;20190;-60
2022/08/21 00:46:07;;;;;;;0.50;0.50;;;15.20;70.40;14.60;96154.00;;;;5115573;28;20209;-65
2022/08/21 00:48:37;;;;;;;0.60;0.60;;;15.20;69.60;14.60;96145.00;;;;5097345;28;20213;-60
2022/08/21 00:51:10;;;;;;;0.83;0.83;;;15.20;69.90;14.50;96147.00;;;;5114544;28;20722;-60
2022/08/21 00:53:41;;;;;;;0.70;0.70;;;15.20;70.00;14.50;96151.00;;;;5115364;28;20228;-59
2022/08/21 00:56:10;;;;;;;8.67;1.00;;;15.10;70.10;14.40;96122.00;;;;5114992;28;20673;-60
2022/08/21 00:58:40;;;;;;;1.03;1.03;;;15.00;70.20;14.30;96149.00;;;;5097172;28;20224;-59
2022/08/21 01:01:08;;;;;;;0.50;0.50;;;14.90;70.00;14.20;96150.00;;;;5114950;28;20296;-59
2022/08/21 01:03:37;;;;;;;0.77;0.77;;;14.90;70.70;14.10;96141.00;;;;5115312;28;20202;-60
2022/08/21 01:06:07;;;;;;;0.70;0.70;;;14.80;71.10;14.10;96140.00;;;;5096969;28;20282;-60
2022/08/21 01:08:35;;;;;;;0.50;0.50;;;14.80;71.20;14.10;96128.00;;;;5114996;28;20194;-59
2022/08/21 01:11:04;;;;;;;0.40;0.40;;;14.80;71.90;14.20;96146.00;;;;5096849;28;20312;-59
2022/08/21 01:13:34;;;;;;;0.50;0.50;;;14.80;71.60;14.10;96148.00;;;;5096743;28;20220;-60
2022/08/21 01:16:05;;;;;;;0.70;0.70;;;14.60;71.50;13.90;96149.00;;;;5114805;28;20584;-60
2022/08/21 01:18:34;;;;;;;0.50;0.50;;;14.60;72.40;14.00;96141.00;;;;5114731;28;20529;-60
2022/08/21 01:21:09;;;;;;;1.47;1.10;;;14.60;72.70;13.90;96143.00;;;;5114740;28;20270;-59
2022/08/21 01:23:37;;;;;;;0.40;0.40;;;14.60;73.00;13.90;96141.00;;;;5114587;28;20680;-60
2022/08/21 01:26:06;;;;;;;0.60;0.60;;;14.60;73.10;14.00;96139.00;;;;5114632;28;20259;-60
2022/08/21 01:28:40;;;;;;;0.50;0.50;;;14.60;73.00;14.00;96123.00;;;;5114534;28;20252;-60
2022/08/21 01:31:12;;;;;;;0.97;0.97;;;14.50;73.40;14.00;96141.00;;;;5114561;28;20209;-59
2022/08/21 01:33:38;;;;;;;0.60;0.60;;;14.50;73.40;13.80;96139.00;;;;5114448;28;20209;-58
2022/08/21 01:36:06;;;;;;;0.80;0.80;;;14.40;72.70;13.60;96130.00;;;;5114550;28;20197;-60
2022/08/21 01:38:33;;;;;;;0.50;0.50;;;14.20;72.60;13.50;96131.00;;;;5114544;28;20285;-60
2022/08/21 01:41:00;;;;;;;0.50;0.50;;;14.20;73.50;13.50;96129.00;;;;5114586;28;20226;-61
2022/08/21 01:43:26;;;;;;;0.73;0.73;;;14.10;74.10;13.50;96125.00;;;;5114392;28;20194;-59
2022/08/21 01:45:53;;;;;;;0.57;0.57;;;14.20;74.80;13.50;96130.00;;;;5114357;28;20222;-59
2022/08/21 01:48:21;;;;;;;0.93;0.90;;;14.20;75.20;13.50;96130.00;;;;5114362;28;20208;-59
2022/08/21 01:50:48;;;;;;;0.50;0.50;;;14.20;75.30;13.50;96133.00;;;;5114233;28;20226;-59
2022/08/21 01:53:27;;;;;;;0.60;0.60;;;14.10;75.80;13.40;96129.00;;;;5096555;28;20536;-62
2022/08/21 01:55:54;;;;;;;0.57;0.57;;;14.10;76.90;13.40;96117.00;;;;5114636;28;20277;-61
2022/08/21 01:58:20;;;;;;;0.83;0.83;;;14.10;76.50;13.40;96121.00;;;;5114232;28;20205;-60
2022/08/21 02:00:47;;;;;;;0.70;0.70;;;14.10;76.40;13.40;96118.00;;;;5114231;28;20185;-59
2022/08/21 02:03:13;;;;;;;0.70;0.70;;;14.00;76.40;13.40;96116.00;;;;5113094;28;20252;-59
2022/08/21 02:05:40;;;;;;;0.50;0.50;;;14.00;76.10;13.40;96117.00;;;;5114083;28;20232;-59
2022/08/21 02:08:07;;;;;;;0.97;0.97;;;14.00;75.80;13.40;96117.00;;;;5113987;28;20223;-59
2022/08/21 02:10:34;;;;;;;0.87;0.87;;;14.00;76.50;13.40;96117.00;;;;5114019;28;20217;-60
2022/08/21 02:13:01;;;;;;;0.90;0.90;;;14.10;76.90;13.40;96110.00;;;;5113885;28;20653;-58
2022/08/21 02:15:30;;;;;;;1.80;0.87;;;14.00;76.20;13.30;96113.00;;;;5114245;28;20305;-59
2022/08/21 02:17:59;;;;;;;0.53;0.53;;;14.00;77.00;13.30;96113.00;;;;5114027;28;20222;-60
2022/08/21 02:20:31;;;;;;;0.57;0.57;;;13.90;77.30;13.30;96115.00;;;;5114173;28;20281;-58
2022/08/21 02:22:58;;;;;;;0.87;0.87;;;14.00;77.10;13.30;96110.00;;;;5114574;28;20290;-60
2022/08/21 02:25:26;;;;;;;0.60;0.60;;;14.00;77.80;13.30;96112.00;;;;5113752;28;20305;-59
2022/08/21 02:27:55;;;;;;;2.73;1.57;;;13.90;78.10;13.30;96109.00;;;;5113708;28;20194;-59
2022/08/21 02:30:28;;;;;;;0.60;0.60;;;14.00;77.90;13.20;96102.00;;;;5095602;28;20226;-59
2022/08/21 02:32:55;;;;;;;0.60;0.60;;;13.80;77.90;13.20;96098.00;;;;5113757;28;20198;-60
2022/08/21 02:35:22;;;;;;;0.60;0.60;;;13.80;78.40;13.10;96093.00;;;;5095591;28;20225;-61
2022/08/21 02:37:53;;;;;;;0.93;0.93;;;13.80;78.20;13.10;96101.00;;;;5113737;28;20648;-61
2022/08/21 02:40:26;;;;;;;0.93;0.93;;;13.90;78.50;13.10;96104.00;;;;5113714;28;20251;-61
2022/08/21 02:42:54;;;;;;;0.70;0.70;;;13.80;78.30;13.00;96103.00;;;;5113706;28;20284;-59
2022/08/21 02:45:23;;;;;;;0.50;0.50;;;13.80;78.80;13.00;96102.00;;;;5113618;28;20202;-59
2022/08/21 02:47:52;;;;;;;0.60;0.60;;;13.70;79.50;13.00;96095.00;;;;5095670;28;20216;-59
2022/08/21 02:50:21;;;;;;;3.07;1.20;;;13.70;79.70;13.00;96097.00;;;;5113358;28;20221;-59
2022/08/21 02:52:48;;;;;;;0.77;0.77;;;13.70;79.50;13.00;96105.00;;;;5095765;28;20246;-59
2022/08/21 02:55:16;;;;;;;1.63;1.53;;;13.70;79.30;12.90;96106.00;;;;5095708;28;20202;-58
2022/08/21 02:57:44;;;;;;;2.43;0.83;;;13.70;78.70;12.90;96097.00;;;;5113322;28;20217;-60
2022/08/21 03:00:13;;;;;;;0.57;0.57;;;13.60;78.90;12.90;96094.00;;;;5113231;28;20298;-59
2022/08/21 03:02:40;;;;;;;0.83;0.83;;;13.60;79.60;12.90;96101.00;;;;5113425;28;20198;-59
2022/08/21 03:05:09;;;;;;;0.50;0.50;;;13.60;79.60;12.90;96092.00;;;;5113284;28;20231;-59
2022/08/21 03:07:36;;;;;;;0.60;0.60;;;13.50;79.20;12.80;96098.00;;;;5113397;28;20220;-60
2022/08/21 03:10:04;;;;;;;0.60;0.60;;;13.50;80.00;12.90;96099.00;;;;5095155;28;20528;-59
2022/08/21 03:12:31;;;;;;;0.43;0.43;;;13.60;78.90;12.90;96091.00;;;;5113248;28;20269;-62
2022/08/21 03:14:57;;;;;;;0.50;0.50;;;13.60;78.90;12.90;96096.00;;;;5114481;28;20436;-61
2022/08/21 03:17:25;;;;;;;0.43;0.43;;;13.60;78.70;12.80;96099.00;;;;5116791;28;20575;-62
2022/08/21 03:19:51;;;;;;;0.80;0.80;;;13.60;79.40;12.80;96093.00;;;;5116622;28;20210;-59
2022/08/21 03:22:18;;;;;;;3.30;1.10;;;13.50;79.20;12.70;96094.00;;;;5116643;28;20637;-60
2022/08/21 03:24:45;;;;;;;1.30;1.00;;;13.40;79.70;12.70;96097.00;;;;5116555;28;20656;-59
2022/08/21 03:27:14;;;;;;;0.77;0.77;;;13.40;79.50;12.70;96094.00;;;;5116585;28;20309;-59
2022/08/21 03:29:40;;;;;;;0.50;0.50;;;13.40;80.20;12.60;96096.00;;;;5116462;28;20190;-62
2022/08/21 03:32:09;;;;;;;0.43;0.43;;;13.40;80.10;12.60;96096.00;;;;5116363;28;20729;-61
2022/08/21 03:34:36;;;;;;;2.83;1.20;;;13.40;80.10;12.60;96097.00;;;;5116355;28;20292;-60
2022/08/21 03:37:06;;;;;;;1.43;1.33;;;13.30;80.80;12.70;96090.00;;;;5116248;28;20558;-59
2022/08/21 03:39:34;;;;;;;0.80;0.80;;;13.40;80.80;12.70;96084.00;;;;5116523;28;20636;-64
2022/08/21 03:42:01;;;;;;;0.70;0.70;;;13.30;80.00;12.60;96089.00;;;;5116302;28;20194;-59
2022/08/21 03:44:28;;;;;;;0.77;0.77;;;13.30;80.60;12.60;96080.00;;;;5116265;28;20223;-59
2022/08/21 03:46:55;;;;;;;0.80;0.80;;;13.30;79.40;12.60;96089.00;;;;5116203;28;20200;-59
2022/08/21 03:49:22;;;;;;;0.77;0.77;;;13.30;80.30;12.50;96089.00;;;;5116199;28;20194;-59
2022/08/21 03:51:49;;;;;;;0.60;0.60;;;13.20;79.20;12.50;96095.00;;;;5116090;28;20226;-59
2022/08/21 03:54:16;;;;;;;0.63;0.63;;;13.10;79.50;12.50;96094.00;;;;5116203;28;20222;-59
2022/08/21 03:56:42;;;;;;;0.60;0.60;;;13.00;80.10;12.40;96082.00;;;;5116045;28;20213;-59
2022/08/21 03:59:09;;;;;;;1.10;1.03;;;13.10;80.60;12.40;96094.00;;;;5115908;28;20225;-59
2022/08/21 04:01:36;;;;;;;0.60;0.60;;;13.10;80.60;12.40;96091.00;;;;5115980;28;20278;-59
2022/08/21 04:04:03;;;;;;;0.53;0.53;;;13.10;80.20;12.40;96094.00;;;;5115955;28;20287;-60
2022/08/21 04:06:30;;;;;;;0.63;0.63;;;13.10;80.80;12.40;96095.00;;;;5115947;28;20277;-60
2022/08/21 04:08:57;;;;;;;0.70;0.70;;;13.00;81.00;12.30;96095.00;;;;5115716;28;20202;-60
2022/08/21 04:11:24;;;;;;;0.60;0.60;;;13.00;80.10;12.30;96095.00;;;;5115666;28;20327;-60
2022/08/21 04:13:50;;;;;;;8.57;1.13;;;13.00;80.80;12.30;96104.00;;;;5115753;28;20205;-59
2022/08/21 04:16:19;;;;;;;0.80;0.80;;;13.00;80.80;12.40;96035.00;;;;5097570;28;20546;-58
2022/08/21 04:18:45;;;;;;;0.50;0.50;;;12.90;80.40;12.20;96112.00;;;;5115686;28;20194;-60
2022/08/21 04:21:12;;;;;;;0.70;0.70;;;12.80;81.00;12.20;96108.00;;;;5115552;28;20294;-60
2022/08/21 04:23:39;;;;;;;0.57;0.57;;;12.70;81.40;12.10;96108.00;;;;5115692;28;20537;-62
2022/08/21 04:26:06;;;;;;;0.60;0.60;;;12.70;81.50;12.10;96102.00;;;;5114709;28;20205;-59
2022/08/21 04:28:33;;;;;;;0.60;0.60;;;12.70;81.50;12.10;96112.00;;;;5115544;28;20200;-59
2022/08/21 04:30:59;;;;;;;0.40;0.40;;;12.70;82.10;12.10;96121.00;;;;5115551;28;20222;-62
2022/08/21 04:33:26;;;;;;;0.60;0.60;;;12.70;82.00;12.10;96117.00;;;;5115469;28;20308;-59
2022/08/21 04:35:55;;;;;;;0.50;0.50;;;12.60;81.90;12.00;96118.00;;;;5115540;28;20292;-62
2022/08/21 04:38:22;;;;;;;0.50;0.50;;;12.70;81.70;12.00;96122.00;;;;5115419;28;20210;-59
2022/08/21 04:40:52;;;;;;;0.60;0.60;;;12.70;81.70;12.00;96100.00;;;;5115493;28;20267;-59
2022/08/21 04:43:21;;;;;;;2.40;1.30;;;12.70;81.70;12.00;96051.00;;;;5097578;28;20591;-59
2022/08/21 04:45:50;;;;;;;0.70;0.70;;;12.70;82.50;12.10;96123.00;;;;5097627;28;20226;-59
2022/08/21 04:48:19;;;;;;;1.00;1.00;;;12.70;81.50;12.10;96128.00;;;;5115342;28;20194;-59
2022/08/21 04:50:54;;;;;;;0.50;0.50;;;12.80;81.30;12.10;96122.00;;;;5115362;28;20287;-60
2022/08/21 04:53:28;;;;;;;0.63;0.63;;;12.80;81.40;12.10;96126.00;;;;5115238;28;20205;-59
2022/08/21 04:55:58;;;;;;;0.47;0.47;;;12.70;81.40;12.10;96122.00;;;;5115177;28;20313;-59
2022/08/21 04:58:27;;;;;;;2.07;1.43;;;12.70;81.90;12.10;96121.00;;;;5097426;28;20590;-59
2022/08/21 05:00:57;;;;;;;1.20;1.20;;;12.70;82.70;12.30;96129.00;;;;5115136;28;20210;-60
2022/08/21 05:03:24;;;;;;;0.60;0.60;;;12.90;81.70;12.30;96132.00;;;;5115344;28;20198;-58
2022/08/21 05:05:51;;;;;;;0.97;0.97;;;12.80;81.70;12.30;96129.00;;;;5114967;28;20225;-60
2022/08/21 05:08:23;;;;;;;0.70;0.70;;;12.90;82.00;12.40;96126.00;;;;5114903;28;20205;-60
2022/08/21 05:10:50;;;;;;;0.87;0.87;;;12.90;82.20;12.40;96142.00;;;;5115910;28;20302;-59
2022/08/21 05:13:17;;;;;;;0.70;0.70;;;13.00;82.20;12.30;96138.00;;;;5114925;28;20202;-59
2022/08/21 05:15:45;;;;;;;0.70;0.70;;;13.00;82.00;12.40;96143.00;;;;5114883;28;20221;-59
2022/08/21 05:18:11;;;;;;;0.77;0.77;;;13.10;81.70;12.50;96143.00;;;;5114805;28;20225;-60
2022/08/21 05:20:38;;;;;;;0.60;0.60;;;13.20;81.10;12.50;96140.00;;;;5114809;28;20248;-59
2022/08/21 05:23:09;;;;;;;1.23;1.20;;;13.20;80.80;12.60;96141.00;;;;5114664;28;20304;-59
2022/08/21 05:25:36;;;;;;;0.70;0.70;;;13.20;80.10;12.60;96139.00;;;;5114713;28;20208;-59
2022/08/21 05:28:06;;;;;;;0.90;0.90;;;13.30;80.00;12.70;96142.00;;;;5114568;28;20226;-59
2022/08/21 05:30:34;;;;;;;0.97;0.97;;;13.30;80.30;12.70;96136.00;;;;5114499;28;20233;-59
2022/08/21 05:33:06;;;;;;;3.37;1.17;;;13.30;79.30;12.70;96144.00;;;;5114655;28;20259;-61
2022/08/21 05:35:33;;;;;;;1.20;1.10;;;13.30;78.90;12.70;96144.00;;;;5114561;28;20197;-59
2022/08/21 05:38:00;;;;;;;0.60;0.60;;;13.30;78.60;12.70;96148.00;;;;5114492;28;20197;-60
2022/08/21 05:40:27;;;;;;;1.43;0.90;;;13.30;78.50;12.70;96148.00;;;;5096394;28;20580;-60
2022/08/21 05:42:55;;;;;;;0.60;0.60;;;13.30;78.50;12.70;96147.00;;;;5114367;28;20190;-62
2022/08/21 05:45:24;;;;;;;0.70;0.70;;;13.40;78.50;12.80;96151.00;;;;5114275;28;20222;-60
2022/08/21 05:47:52;;;;;;;0.83;0.83;;;13.40;78.70;12.90;96153.00;;;;5114391;28;20208;-59
2022/08/21 05:50:20;;;;;;;0.80;0.80;;;13.50;78.50;13.00;96146.00;;;;5114016;28;20232;-59
2022/08/21 05:52:46;;;;;;;0.60;0.60;;;13.60;77.90;13.10;96153.00;;;;5114368;28;20672;-59
2022/08/21 05:55:13;;;;;;;0.63;0.63;;;13.60;78.00;13.10;96151.00;;;;5114281;28;20258;-59
2022/08/21 05:57:41;;;;;;;0.83;0.83;;;13.80;77.60;13.20;96157.00;;;;5114225;28;20206;-59
2022/08/21 06:00:12;;;;;;;0.73;0.73;;;13.70;77.70;13.20;96151.00;;;;5114232;28;20194;-61
2022/08/21 06:02:38;;;;;;;0.70;0.70;;;13.70;78.50;13.20;96153.00;;;;5114138;28;20244;-60
2022/08/21 06:05:06;;;;;;;0.83;0.83;;;13.70;78.30;13.30;96147.00;;;;5096091;28;20653;-60
2022/08/21 06:07:33;;;;;;;0.60;0.60;;;13.90;77.20;13.30;96153.00;;;;5114091;28;20222;-59
2022/08/21 06:10:00;;;;;;;0.70;0.70;;;13.90;77.50;13.40;96152.00;;;;5114164;28;20198;-61
2022/08/21 06:12:27;;;;;;;0.70;0.70;;;14.00;77.10;13.40;96159.00;;;;5113914;28;20190;-59
2022/08/21 06:14:56;;;;;;;0.67;0.67;;;14.10;77.10;13.60;96161.00;;;;5114244;28;20267;-59
2022/08/21 06:17:22;;;;;;;0.50;0.50;;;14.10;76.50;13.70;96156.00;;;;5114078;28;20210;-59
2022/08/21 06:19:52;;;;;;;0.70;0.70;;;14.30;76.00;13.80;96149.00;;;;5114245;28;20204;-59
2022/08/21 06:22:19;;;;;;;0.90;0.90;;;14.30;75.30;13.90;96162.00;;;;5114266;28;20256;-62
2022/08/21 06:24:46;;;;;;;2.73;1.27;;;14.40;75.10;13.90;96153.00;;;;5114040;28;20224;-63
2022/08/21 06:27:17;;;;;;;1.10;1.07;;;14.50;75.00;14.00;96152.00;;;;5096222;28;20202;-60
2022/08/21 06:29:45;;;;;;;1.53;1.43;;;14.50;74.50;14.00;96149.00;;;;5113658;28;20221;-59
2022/08/21 06:32:12;;;;;;;1.20;1.10;;;14.60;74.40;14.10;96146.00;;;;5113694;28;20217;-59
2022/08/21 06:34:40;;;;;;;0.63;0.63;;;14.70;74.40;14.00;96145.00;;;;5113675;28;20194;-60
2022/08/21 06:37:09;;;;;;;0.83;0.83;;;14.70;74.80;14.20;96143.00;;;;5113679;28;20754;-59
2022/08/21 06:39:36;;;;;;;0.63;0.63;;;14.90;74.80;14.40;96143.00;;;;5113601;28;20297;-60
2022/08/21 06:42:04;;;;;;;1.67;1.00;;;14.90;74.60;14.40;96148.00;;;;5095650;28;20209;-59
2022/08/21 06:44:30;;;;;;;1.13;1.13;;;15.00;75.30;14.60;96131.00;;;;5113627;28;20186;-59
2022/08/21 06:46:57;;;;;;;0.70;0.70;;;15.10;73.80;14.70;96152.00;;;;5113750;28;20221;-59
2022/08/21 06:49:23;;;;;;;0.90;0.90;;;15.20;73.40;14.70;96143.00;;;;5113962;28;20205;-59
2022/08/21 06:51:50;;;;;;;0.50;0.50;;;15.30;74.10;14.90;96137.00;;;;5116936;28;20329;-59
2022/08/21 06:54:17;;;;;;;1.47;1.37;;;15.40;74.10;15.00;96139.00;;;;5099119;28;20198;-59
2022/08/21 06:56:43;;;;;;;0.47;0.47;;;15.50;74.00;15.10;96151.00;;;;5099161;28;20247;-60
2022/08/21 06:59:10;;;;;;;1.07;1.07;;;15.70;72.90;15.40;96144.00;;;;5116909;28;20301;-60
2022/08/21 07:01:37;;;;;;;0.90;0.90;;;15.90;72.00;15.40;96138.00;;;;5116915;28;20186;-59
2022/08/21 07:04:03;;;;;;;0.80;0.80;;;16.00;71.50;15.50;96149.00;;;;5116839;28;20377;-59
2022/08/21 07:06:30;;;;;;;0.53;0.53;;;16.00;70.90;15.50;96142.00;;;;5116871;28;20271;-59
2022/08/21 07:08:57;;;;;;;0.70;0.70;;;16.10;72.20;15.60;96146.00;;;;5098833;28;20225;-60
2022/08/21 07:11:25;;;;;;;0.70;0.70;;;16.30;69.70;15.70;96143.00;;;;5098686;28;20217;-60
2022/08/21 07:13:53;;;;;;;1.60;1.50;;;16.30;69.80;15.90;96139.00;;;;5116618;28;20210;-62
2022/08/21 07:16:20;;;;;;;4.47;1.00;;;16.50;69.30;16.10;96140.00;;;;5098606;28;20305;-60
2022/08/21 07:18:47;;;;;;;0.77;0.77;;;16.70;68.60;16.20;96135.00;;;;5116620;28;20198;-60
2022/08/21 07:21:13;;;;;;;0.73;0.73;;;16.80;68.30;16.40;96140.00;;;;5116673;28;20262;-58
2022/08/21 07:23:43;;;;;;;1.10;1.10;;;16.80;67.40;16.30;96135.00;;;;5116592;28;20217;-60
2022/08/21 07:26:11;;;;;;;1.00;0.97;;;16.80;67.70;16.50;96138.00;;;;5116483;28;20667;-60
2022/08/21 07:28:40;;;;;;;0.90;0.90;;;16.90;67.90;16.60;96130.00;;;;5116529;28;20288;-59
2022/08/21 07:31:10;;;;;;;1.10;1.10;;;17.20;66.00;16.80;96134.00;;;;5116328;28;20320;-60
2022/08/21 07:33:37;;;;;;;0.80;0.80;;;17.30;64.80;16.90;96130.00;;;;5116280;28;20540;-62
2022/08/21 07:36:05;;;;;;;1.13;1.13;;;17.40;63.90;16.90;96137.00;;;;5116289;28;20732;-60
2022/08/21 07:38:31;;;;;;;0.50;0.50;;;17.60;63.10;17.20;96125.00;;;;5116398;28;20620;-60
2022/08/21 07:41:01;;;;;;;0.80;0.80;;;17.70;62.50;17.40;96127.00;;;;5116577;28;20306;-60
2022/08/21 07:43:28;;;;;;;1.03;1.00;;;17.80;61.90;17.40;96128.00;;;;5116305;28;20194;-60
2022/08/21 07:45:56;;;;;;;1.20;1.20;;;18.00;61.90;17.60;96130.00;;;;5116295;28;20547;-60
2022/08/21 07:48:23;;;;;;;0.50;0.50;;;18.10;60.90;17.70;96107.00;;;;5116097;28;20228;-61
2022/08/21 07:50:51;;;;;;;0.50;0.50;;;18.20;61.10;17.80;96127.00;;;;5116134;28;20313;-61
2022/08/21 07:53:17;;;;;;;1.07;1.07;;;18.40;60.70;18.10;96127.00;;;;5116244;28;20217;-61
2022/08/21 07:55:44;;;;;;;1.07;0.90;;;18.60;59.50;18.20;96122.00;;;;5116232;28;20213;-61
2022/08/21 07:58:10;;;;;;;0.83;0.83;;;18.70;59.40;18.40;96128.00;;;;5116156;28;20274;-61
2022/08/21 08:00:37;;;;;;;0.70;0.70;;;18.90;58.10;18.70;96126.00;;;;5115313;28;20225;-60
2022/08/21 08:03:15;;;;;;;1.33;1.00;;;;;18.80;96128.00;;;;5115163;28;20197;-61
2022/08/21 08:05:42;;;;;;;0.80;0.80;;;19.30;56.60;19.00;96129.00;;;;5115738;28;20308;-65
2022/08/21 08:08:10;;;;;;;0.50;0.50;;;19.40;55.20;19.00;96130.00;;;;5115760;28;20720;-64
2022/08/21 08:10:39;;;;;;;1.37;1.20;;;;;19.10;96131.00;;;;5115558;28;20234;-61
2022/08/21 08:13:06;;;;;;;0.60;0.60;;;;;19.20;96126.00;;;;5115852;28;20217;-61
2022/08/21 08:15:36;;;;;;;0.97;0.97;;;;;19.20;96127.00;;;;5115637;28;20244;-60
2022/08/21 08:18:03;;;;;;;0.93;0.93;;;;;19.50;96118.00;;;;5115680;28;20194;-61
2022/08/21 08:20:30;;;;;;;1.00;1.00;;;;;19.70;96114.00;;;;5115726;28;20205;-60
2022/08/21 08:22:57;;;;;;;0.87;0.87;;;;;19.60;96116.00;;;;5115753;28;20277;-60
2022/08/21 08:25:26;;;;;;;0.60;0.60;;;;;19.70;96113.00;;;;5115545;28;20247;-60
2022/08/21 08:27:53;;;;;;;1.10;0.83;;;;;19.80;96107.00;;;;5115430;28;20193;-60
2022/08/21 08:30:21;;;;;;;1.07;1.00;;;;;20.10;96109.00;;;;5097362;28;20466;-61
2022/08/21 08:32:49;;;;;;;0.57;0.57;;;;;20.10;96103.00;;;;5115517;28;20218;-60
2022/08/21 08:35:18;;;;;;;0.50;0.50;;;;;20.20;96095.00;;;;5097923;28;20523;-60
2022/08/21 08:37:45;;;;;;;3.07;1.53;;;;;20.20;96098.00;;;;5115293;28;20218;-60
2022/08/21 08:40:18;;;;;;;0.70;0.70;;;;;20.30;96104.00;;;;5115638;28;20254;-60
2022/08/21 08:42:47;;;;;;;0.63;0.63;;;;;20.50;96095.00;;;;5115353;28;20218;-59
2022/08/21 08:45:18;;;;;;;0.60;0.60;;;;;20.60;96096.00;;;;5115494;28;20198;-61
2022/08/21 08:47:48;;;;;;;0.40;0.40;;;;;20.70;96094.00;;;;5115532;28;20233;-60
2022/08/21 08:50:21;;;;;;;0.40;0.40;;;;;20.80;96091.00;;;;5115310;28;20220;-60
2022/08/21 08:52:52;;;;;;;0.70;0.70;;;;;20.60;96089.00;;;;5115182;28;20237;-59
2022/08/21 08:55:28;;;;;;;0.70;0.70;;;;;20.60;96090.00;;;;5115040;28;20201;-59
2022/08/21 08:57:56;;;;;;;1.33;1.27;;;;;20.60;96090.00;;;;5115042;28;20228;-60
2022/08/21 09:00:25;;;;;;;6.03;1.60;;;;;20.80;96080.00;;;;5097063;28;20210;-60
2022/08/21 09:02:55;;;;;;;0.40;0.40;;;;;21.10;96087.00;;;;5114926;28;20305;-58
2022/08/21 09:05:24;;;;;;;0.97;0.97;;;;;21.20;96084.00;;;;5114974;28;20224;-60
2022/08/21 09:08:11;;;;;;;0.37;0.37;;;;;21.40;96089.00;;;;5114940;28;20652;-61
2022/08/21 09:10:50;;;;;;;0.50;0.50;;;;;21.40;96078.00;;;;5114819;28;20296;-61
2022/08/21 09:13:28;;;;;;;0.70;0.70;;;;;21.50;96081.00;;;;5096518;28;20675;-60
2022/08/21 09:16:05;;;;;;;0.50;0.50;;;;;21.50;96082.00;;;;5114791;28;20201;-62
2022/08/21 09:18:41;;;;;;;0.63;0.63;;;;;21.60;96071.00;;;;5114757;28;20252;-59
2022/08/21 09:21:16;;;;;;;0.50;0.50;;;;;21.70;96074.00;;;;5096891;28;20506;-60
2022/08/21 09:23:52;;;;;;;0.80;0.80;;;;;21.80;96079.00;;;;5114604;28;20248;-59
2022/08/21 09:26:22;;;;;;;0.75;0.75;;;;;21.90;96075.00;;;;5114630;28;20625;-65
2022/08/21 09:28:53;;;;;;;0.80;0.80;;;;;22.00;96070.00;;;;5096794;28;20222;-63
2022/08/21 09:31:24;;;;;;;0.47;0.47;;;;;22.20;96067.00;;;;5114526;28;20224;-63
2022/08/21 09:34:04;;;;;;;0.68;0.60;;;;;22.20;96068.00;;;;5114551;28;20305;-57
2022/08/21 09:36:37;;;;;;;0.53;0.53;;;;;22.40;96071.00;;;;5114717;28;20199;-57
2022/08/21 09:39:05;;;;;;;1.25;0.82;;;;;22.20;96070.00;;;;5114434;28;20228;-59
2022/08/21 09:41:36;;;;;;;0.73;0.73;;;;;22.30;96068.00;;;;5114546;28;20225;-60
2022/08/21 09:44:05;;;;;;;0.70;0.70;;;;;22.50;96067.00;;;;5114152;28;20267;-60
2022/08/21 09:46:33;;;;;;;0.50;0.50;;;;;22.70;96066.00;;;;5114224;28;20194;-60
2022/08/21 09:49:03;;;;;;;0.40;0.40;;;;;22.70;96071.00;;;;5114431;28;20273;-58
2022/08/21 09:51:32;;;;;;;4.68;1.15;;;;;22.40;96059.00;;;;5096339;28;20222;-60
2022/08/21 09:54:16;;;;;;;2.95;0.85;;;;;22.60;96064.00;;;;5114131;28;20194;-60
2022/08/21 10:00:10;;;;;;;5.85;0.88;;;;;22.90;96062.00;;;;5114148;28;20206;-60
2022/08/21 10:02:39;;;;;;;0.40;0.40;;;;;23.20;96056.00;;;;5114041;28;20189;-60
2022/08/21 10:05:16;;;;;;;0.40;0.40;;;;;23.30;96053.00;;;;5114108;28;20198;-59
2022/08/21 10:07:43;;;;;;;3.80;0.75;;;;;23.30;96053.00;;;;5113917;28;20214;-61
2022/08/21 10:10:16;;;;;;;0.55;0.55;;;;;23.30;96058.00;;;;5113993;28;20250;-60
2022/08/21 10:12:52;;;;;;;0.82;0.82;;;;;23.30;96059.00;;;;5096071;28;20217;-61
2022/08/21 10:15:27;;;;;;;0.65;0.65;;;;;23.40;96054.00;;;;5114067;28;20651;-61
2022/08/21 10:18:02;;;;;;;1.60;1.02;;;;;23.60;96057.00;;;;5095978;28;20221;-61
2022/08/21 10:20:37;;;;;;;0.60;0.60;;;;;23.50;96045.00;;;;5113961;28;20178;-61
2022/08/21 10:23:20;;;;;;;0.98;0.98;;;;;23.50;96039.00;;;;5114010;28;20241;-60
2022/08/21 10:25:56;;;;;;;0.60;0.60;;;;;23.70;96043.00;;;;5113018;28;20189;-60
2022/08/21 10:28:30;;;;;;;0.40;0.40;;;;;23.70;96039.00;;;;5114004;28;20225;-60
2022/08/21 10:31:07;;;;;;;0.40;0.40;;;;;23.70;96046.00;;;;5096004;28;20791;-63
2022/08/21 10:33:46;;;;;;;0.70;0.70;;;;;24.00;96037.00;;;;5095623;28;20197;-61
2022/08/21 10:36:20;;;;;;;1.42;1.33;;;;;23.80;96033.00;;;;5113798;28;20204;-61
2022/08/21 10:39:12;;;;;;;0.55;0.55;;;;;23.80;96028.00;;;;5113641;28;20640;-61
2022/08/21 10:42:02;;;;;;;0.98;0.98;;;;;24.00;96028.00;;;;5113537;28;20202;-61
2022/08/21 10:44:37;;;;;;;0.63;0.63;;;;;24.40;96024.00;;;;5113392;28;20234;-60
2022/08/21 10:47:14;;;;;;;0.50;0.50;;;;;24.40;96015.00;;;;5113455;28;20262;-61
2022/08/21 10:49:46;;;;;;;0.50;0.50;;;;;24.70;96017.00;;;;5113478;28;20185;-61
2022/08/21 10:52:49;;;;;;;0.60;0.60;;;;;25.00;95989.00;;;;5114772;28;20222;-65
2022/08/21 10:55:18;;;;;;;0.85;0.85;;;;;25.20;96007.00;;;;5113656;28;20194;-62
2022/08/21 10:57:49;;;;;;;5.55;1.35;;;;;25.30;96007.00;;;;5113437;28;20218;-60
2022/08/21 11:00:19;;;;;;;0.47;0.47;;;;;25.00;96009.00;;;;5113517;28;20201;-62
2022/08/21 11:02:53;;;;;;;0.70;0.70;;;;;24.50;96008.00;;;;5095594;28;20190;-60
2022/08/21 11:05:25;;;;;;;1.15;0.98;;;;;24.50;96017.00;;;;5095505;28;20255;-61
2022/08/21 11:07:58;;;;;;;7.32;1.02;;;25.00;26.80;23.70;96005.00;;;;5113433;28;20210;-62
2022/08/21 11:10:31;;;;;;;0.93;0.93;;;24.20;28.60;24.10;96033.00;;;;5095356;28;20732;-61
2022/08/21 11:13:06;;;;;;;0.98;0.98;;;24.30;28.90;23.60;96026.00;;;;5113305;28;20218;-60
2022/08/21 11:15:44;;;;;;;0.60;0.60;;;;;23.90;96003.00;;;;5113134;28;20221;-60
2022/08/21 11:18:20;;;;;;;0.60;0.60;;;;;24.10;96001.00;;;;5113104;28;20221;-61
2022/08/21 11:20:54;;;;;;;1.63;1.13;;;;;24.40;95997.00;;;;5113123;28;20221;-62
2022/08/21 11:23:26;;;;;;;0.50;0.50;;;;;24.90;95999.00;;;;5113249;28;20204;-61
2022/08/21 11:25:58;;;;;;;0.95;0.95;;;;;25.20;95988.00;;;;5113054;28;20182;-60
2022/08/21 11:28:31;;;;;;;0.80;0.80;;;;;25.50;95992.00;;;;5113007;28;20252;-60